createdAt,value
2022-10-02T00:02:39.562Z,100123.59
2022-10-02T00:05:48.628Z,100123.59
2022-10-02T00:08:59.375Z,100121.56
2022-10-02T00:12:06.221Z,100136.47
2022-10-02T00:15:16.456Z,100123.94
2022-10-02T00:18:24.517Z,100141.56
2022-10-02T00:21:31.740Z,100139.97
2022-10-02T00:25:02.294Z,100134.88
2022-10-02T00:28:10.730Z,100145.63
2022-10-02T00:31:30.306Z,100146.66
2022-10-02T00:35:04.091Z,100145.84
2022-10-02T00:38:21.779Z,100143.75
2022-10-02T00:42:00.018Z,100148.53
2022-10-02T00:45:31.746Z,100153.44
2022-10-02T00:48:51.569Z,100145.84
2022-10-02T00:52:15.124Z,100148.03
2022-10-02T00:55:41.603Z,100153.63
2022-10-02T00:58:51.812Z,100156.00
2022-10-02T01:02:04.957Z,100162.19
2022-10-02T01:05:09.806Z,100155.84
2022-10-02T01:08:14.472Z,100155.09
2022-10-02T01:11:20.620Z,100159.97
2022-10-02T01:14:35.425Z,100163.16
2022-10-02T01:17:39.967Z,100164.63
2022-10-02T01:20:48.432Z,100166.66
2022-10-02T01:24:11.645Z,100169.53
2022-10-02T01:27:15.926Z,100170.97
2022-10-02T01:30:20.966Z,100172.72
2022-10-02T01:33:25.378Z,100182.38
2022-10-02T01:36:31.232Z,100173.16
2022-10-02T01:39:35.264Z,100181.84
2022-10-02T01:42:40.307Z,100191.69
2022-10-02T01:45:51.696Z,100189.28
2022-10-02T01:49:11.714Z,100188.16
2022-10-02T01:52:30.907Z,100188.47
2022-10-02T01:55:44.618Z,100197.69
2022-10-02T01:58:58.443Z,100203.53
2022-10-02T02:02:16.696Z,100196.88
2022-10-02T02:05:30.941Z,100212.25
2022-10-02T02:08:42.914Z,100208.78
2022-10-02T02:12:08.887Z,100210.22
2022-10-02T02:15:28.730Z,100207.47
2022-10-02T02:18:59.601Z,100212.72
2022-10-02T02:22:15.795Z,100210.63
2022-10-02T02:25:25.405Z,100215.59
2022-10-02T02:28:32.599Z,100214.81
2022-10-02T02:31:41.364Z,100212.13
2022-10-02T02:34:54.552Z,100204.81
2022-10-02T02:38:05.929Z,100202.78
2022-10-02T02:41:15.376Z,100200.88
2022-10-02T02:44:28.083Z,100198.34
2022-10-02T02:47:41.690Z,100219.94
2022-10-02T02:50:50.030Z,100218.03
2022-10-02T02:54:01.821Z,100216.44
2022-10-02T02:57:08.426Z,100213.75
2022-10-02T03:00:15.511Z,100214.56
2022-10-02T03:03:19.854Z,100219.47
2022-10-02T03:06:31.685Z,100224.56
2022-10-02T03:09:37.873Z,100221.53
2022-10-02T03:13:17.544Z,100220.28
2022-10-02T03:16:47.789Z,100219.00
2022-10-02T03:20:03.337Z,100224.88
2022-10-02T03:23:31.077Z,100230.47
2022-10-02T03:26:41.192Z,100230.16
2022-10-02T03:29:50.388Z,100226.97
2022-10-02T03:32:56.314Z,100230.94
2022-10-02T03:36:00.706Z,100232.84
2022-10-02T03:39:24.692Z,100229.16
2022-10-02T03:42:33.074Z,100231.13
2022-10-02T03:45:50.871Z,100230.16
2022-10-02T03:48:56.604Z,100230.94
2022-10-02T03:52:01.132Z,100239.03
2022-10-02T03:55:17.540Z,100231.06
2022-10-02T03:58:22.062Z,100235.03
2022-10-02T04:01:31.928Z,100228.34
2022-10-02T04:04:46.401Z,100220.88
2022-10-02T04:07:54.922Z,100222.47
2022-10-02T04:11:11.006Z,100238.97
2022-10-02T04:14:24.605Z,100238.03
2022-10-02T04:17:46.946Z,100247.84
2022-10-02T04:21:05.936Z,100243.13
2022-10-02T04:24:24.751Z,100236.19
2022-10-02T04:27:40.261Z,100234.59
2022-10-02T04:30:44.154Z,100246.66
2022-10-02T04:33:48.161Z,100236.50
2022-10-02T04:37:09.733Z,100236.19
2022-10-02T04:40:26.063Z,100247.28
2022-10-02T04:44:14.652Z,100248.88
2022-10-02T04:47:55.430Z,100260.28
2022-10-02T04:51:23.481Z,100258.69
2022-10-02T04:55:01.750Z,100260.13
2022-10-02T04:58:30.244Z,100262.22
2022-10-02T05:01:58.106Z,100256.19
2022-10-02T05:05:17.508Z,100261.41
2022-10-02T05:08:46.209Z,100271.56
2022-10-02T05:11:58.008Z,100276.63
2022-10-02T05:15:20.183Z,100275.19
2022-10-02T05:18:23.859Z,100267.31
2022-10-02T05:21:46.645Z,100267.13
2022-10-02T05:25:19.458Z,100273.94
2022-10-02T05:28:45.665Z,100275.34
2022-10-02T05:32:17.230Z,100266.97
2022-10-02T05:35:26.063Z,100262.22
2022-10-02T05:38:54.804Z,100257.75
2022-10-02T05:42:10.880Z,100265.34
2022-10-02T05:45:27.145Z,100260.63
2022-10-02T05:48:46.158Z,100254.94
2022-10-02T05:51:59.679Z,100257.75
2022-10-02T05:55:31.571Z,100253.81
2022-10-02T05:58:51.416Z,100261.41
2022-10-02T06:01:57.932Z,100257.75
2022-10-02T06:05:19.341Z,100263.97
2022-10-02T06:08:41.270Z,100264.75
2022-10-02T06:11:57.951Z,100266.34
2022-10-02T06:15:19.815Z,100275.03
2022-10-02T06:18:26.946Z,100271.06
2022-10-02T06:21:47.648Z,100267.22
2022-10-02T06:25:13.867Z,100266.31
2022-10-02T06:29:00.491Z,100260.56
2022-10-02T06:32:45.660Z,100268.66
2022-10-02T06:36:21.427Z,100268.00
2022-10-02T06:39:41.495Z,100258.28
2022-10-02T06:43:05.755Z,100256.34
2022-10-02T06:46:33.691Z,100252.66
2022-10-02T06:49:57.913Z,100262.47
2022-10-02T06:53:12.655Z,100265.66
2022-10-02T06:56:36.264Z,100274.88
2022-10-02T06:59:48.745Z,100273.28
2022-10-02T07:03:02.005Z,100283.50
2022-10-02T07:06:30.988Z,100282.28
2022-10-02T07:09:46.924Z,100274.16
2022-10-02T07:13:09.341Z,100270.13
2022-10-02T07:16:49.056Z,100276.44
2022-10-02T07:20:31.161Z,100271.63
2022-10-02T07:23:42.713Z,100274.59
2022-10-02T07:26:54.401Z,100277.41
2022-10-02T07:30:09.146Z,100273.72
2022-10-02T07:33:42.349Z,100274.38
2022-10-02T07:37:05.021Z,100275.56
2022-10-02T07:40:34.995Z,100275.81
2022-10-02T07:44:05.307Z,100275.47
2022-10-02T07:47:32.513Z,100289.84
2022-10-02T07:50:48.910Z,100291.97
2022-10-02T07:54:04.216Z,100299.78
2022-10-02T07:57:40.702Z,100291.47
2022-10-02T08:00:51.287Z,100289.16
2022-10-02T08:04:01.089Z,100280.75
2022-10-02T08:07:06.736Z,100285.50
2022-10-02T08:10:14.253Z,100288.06
2022-10-02T08:13:22.700Z,100293.25
2022-10-02T08:16:33.392Z,100299.38
2022-10-02T08:19:43.287Z,100304.34
2022-10-02T08:22:53.355Z,100297.56
2022-10-02T08:26:19.722Z,100299.16
2022-10-02T08:29:31.753Z,100295.09
2022-10-02T08:32:36.963Z,100304.31
2022-10-02T08:35:55.180Z,100305.75
2022-10-02T08:39:36.937Z,100295.41
2022-10-02T08:43:16.216Z,100298.56
2022-10-02T08:46:59.415Z,100301.19
2022-10-02T08:50:52.012Z,100305.28
2022-10-02T08:54:15.489Z,100299.97
2022-10-02T08:57:41.544Z,100292.25
2022-10-02T09:01:09.917Z,100297.88
2022-10-02T09:04:39.826Z,100285.75
2022-10-02T09:08:21.692Z,100289.41
2022-10-02T09:12:00.371Z,100287.38
2022-10-02T09:15:26.918Z,100283.47
2022-10-02T09:18:49.441Z,100283.13
2022-10-02T09:21:58.984Z,100285.56
2022-10-02T09:25:35.871Z,100274.44
2022-10-02T09:29:13.993Z,100277.31
2022-10-02T09:32:43.346Z,100259.53
2022-10-02T09:36:36.921Z,100269.56
2022-10-02T09:40:15.601Z,100268.81
2022-10-02T09:43:43.611Z,100258.16
2022-10-02T09:47:09.320Z,100261.06
2022-10-02T09:50:16.530Z,100253.44
2022-10-02T09:53:52.928Z,100250.91
2022-10-02T09:57:42.722Z,100261.38
2022-10-02T10:01:15.544Z,100269.31
2022-10-02T10:05:04.634Z,100266.19
2022-10-02T10:08:20.917Z,100260.88
2022-10-02T10:11:38.851Z,100256.28
2022-10-02T10:14:48.080Z,100267.69
2022-10-02T10:18:10.641Z,100258.00
2022-10-02T10:22:08.959Z,100257.88
2022-10-02T10:25:32.945Z,100258.16
2022-10-02T10:29:04.741Z,100259.97
2022-10-02T10:32:41.081Z,100261.78
2022-10-02T10:36:02.662Z,100249.81
2022-10-02T10:39:33.561Z,100257.69
2022-10-02T10:43:07.053Z,100257.09
2022-10-02T10:46:40.952Z,100258.84
2022-10-02T10:50:02.721Z,100254.94
2022-10-02T10:54:01.951Z,100251.78
2022-10-02T10:57:33.479Z,100247.44
2022-10-02T11:01:08.499Z,100238.41
2022-10-02T11:04:52.309Z,100234.69
2022-10-02T11:08:24.423Z,100236.66
2022-10-02T11:11:50.585Z,100244.00
2022-10-02T11:15:15.230Z,100233.56
2022-10-02T11:18:38.722Z,100230.19
2022-10-02T11:21:45.378Z,100236.47
2022-10-02T11:25:12.539Z,100238.47
2022-10-02T11:29:07.494Z,100247.72
2022-10-02T11:33:05.630Z,100244.00
2022-10-02T11:36:42.500Z,100241.03
2022-10-02T11:39:58.834Z,100234.72
2022-10-02T11:43:13.861Z,100232.72
2022-10-02T11:46:27.854Z,100224.06
2022-10-02T11:49:53.294Z,100226.63
2022-10-02T11:53:00.280Z,100231.97
2022-10-02T11:56:25.649Z,100217.00
2022-10-02T12:00:04.687Z,100217.78
2022-10-02T12:03:36.374Z,100216.19
2022-10-02T12:06:53.050Z,100222.09
2022-10-02T12:10:18.643Z,100226.47
2022-10-02T12:13:51.151Z,100230.78
2022-10-02T12:17:16.450Z,100232.34
2022-10-02T12:21:10.072Z,100236.91
2022-10-02T12:24:44.664Z,100225.06
2022-10-02T12:28:07.053Z,100218.59
2022-10-02T12:31:51.074Z,100223.66
2022-10-02T12:35:20.792Z,100232.53
2022-10-02T12:38:53.433Z,100217.97
2022-10-02T12:42:19.430Z,100209.50
2022-10-02T12:45:32.618Z,100210.81
2022-10-02T12:48:53.935Z,100210.72
2022-10-02T12:52:43.241Z,100214.19
2022-10-02T12:56:18.913Z,100214.44
2022-10-02T12:59:50.024Z,100208.16
2022-10-02T13:03:19.037Z,100212.00
2022-10-02T13:06:33.813Z,100211.84
2022-10-02T13:09:50.053Z,100219.31
2022-10-02T13:13:24.762Z,100216.56
2022-10-02T13:16:52.850Z,100218.59
2022-10-02T13:20:06.443Z,100221.16
2022-10-02T13:23:18.954Z,100216.41
2022-10-02T13:26:33.128Z,100207.31
2022-10-02T13:30:16.631Z,100210.09
2022-10-02T13:33:50.985Z,100206.00
2022-10-02T13:37:13.799Z,100210.72
2022-10-02T13:40:38.011Z,100217.19
2022-10-02T13:44:07.313Z,100228.81
2022-10-02T13:47:22.510Z,100214.66
2022-10-02T13:50:46.601Z,100209.53
2022-10-02T13:53:58.964Z,100215.03
2022-10-02T13:57:29.098Z,100214.25
2022-10-02T14:00:38.746Z,100224.25
2022-10-02T14:04:10.840Z,100217.41
2022-10-02T14:07:33.155Z,100218.19
2022-10-02T14:11:03.668Z,100224.03
2022-10-02T14:14:26.037Z,100224.03
2022-10-02T14:17:48.616Z,100227.25
2022-10-02T14:21:15.630Z,100223.69
2022-10-02T14:24:59.637Z,100230.38
2022-10-02T14:28:28.308Z,100231.56
2022-10-02T14:32:00.861Z,100235.47
2022-10-02T14:35:24.037Z,100245.72
2022-10-02T14:38:41.522Z,100232.94
2022-10-02T14:42:28.436Z,100236.31
2022-10-02T14:45:56.617Z,100242.97
2022-10-02T14:49:29.965Z,100235.66
2022-10-02T14:53:16.028Z,100232.53
2022-10-02T14:56:32.821Z,100239.03
2022-10-02T14:59:49.459Z,100242.16
2022-10-02T15:03:38.103Z,100245.31
2022-10-02T15:07:03.894Z,100236.28
2022-10-02T15:10:26.282Z,100242.56
2022-10-02T15:13:43.128Z,100242.75
2022-10-02T15:17:13.241Z,100244.72
2022-10-02T15:20:29.902Z,100244.13
2022-10-02T15:23:33.512Z,100235.44
2022-10-02T15:27:07.372Z,100250.00
2022-10-02T15:30:20.560Z,100274.38
2022-10-02T15:33:42.314Z,100308.13
2022-10-02T15:37:13.250Z,100302.88
2022-10-02T15:40:38.705Z,100298.41
2022-10-02T15:44:15.654Z,100306.50
2022-10-02T15:47:35.730Z,100297.75
2022-10-02T15:51:14.120Z,100322.75
2022-10-02T15:54:40.214Z,100313.03
2022-10-02T15:57:54.791Z,100317.22
2022-10-02T16:01:25.441Z,100326.16
2022-10-02T16:04:42.762Z,100328.41
2022-10-02T16:08:26.365Z,100334.63
2022-10-02T16:11:52.602Z,100332.00
2022-10-02T16:15:15.203Z,100331.34
2022-10-02T16:18:40.744Z,100340.88
2022-10-02T16:22:04.721Z,100339.28
2022-10-02T16:25:22.147Z,100345.50
2022-10-02T16:28:38.508Z,100355.69
2022-10-02T16:31:55.090Z,100350.88
2022-10-02T16:35:31.927Z,100363.50
2022-10-02T16:38:53.240Z,100368.13
2022-10-02T16:42:10.720Z,100376.72
2022-10-02T16:45:44.042Z,100377.25
2022-10-02T16:49:01.889Z,100385.59
2022-10-02T16:52:14.220Z,100384.22
2022-10-02T16:55:30.772Z,100387.88
2022-10-02T16:59:02.878Z,100384.53
2022-10-02T17:02:26.318Z,100381.31
2022-10-02T17:05:36.776Z,100383.69
2022-10-02T17:08:50.648Z,100390.78
2022-10-02T17:12:20.315Z,100390.66
2022-10-02T17:16:03.192Z,100408.22
2022-10-02T17:19:46.479Z,100413.19
2022-10-02T17:23:04.521Z,100420.06
2022-10-02T17:26:24.644Z,100426.09
2022-10-02T17:29:39.079Z,100428.22
2022-10-02T17:32:46.508Z,100446.84
2022-10-02T17:36:06.566Z,100454.03
2022-10-02T17:39:34.557Z,100453.50
2022-10-02T17:42:53.490Z,100462.75
2022-10-02T17:46:06.897Z,100464.03
2022-10-02T17:49:31.499Z,100470.25
2022-10-02T17:53:12.920Z,100472.53
2022-10-02T17:56:49.880Z,100474.28
2022-10-02T18:00:12.728Z,100477.16
2022-10-02T18:03:48.104Z,100486.06
2022-10-02T18:07:08.798Z,100491.50
2022-10-02T18:10:32.154Z,100495.66
2022-10-02T18:14:06.090Z,100500.09
2022-10-02T18:17:47.794Z,100501.38
2022-10-02T18:21:13.609Z,100507.59
2022-10-02T18:24:32.126Z,100503.88
2022-10-02T18:27:56.480Z,100511.25
2022-10-02T18:31:53.999Z,100512.03
2022-10-02T18:35:15.312Z,100515.72
2022-10-02T18:38:31.077Z,100514.25
2022-10-02T18:41:59.598Z,100520.16
2022-10-02T18:45:31.475Z,100522.22
2022-10-02T18:48:53.686Z,100517.31
2022-10-02T18:52:09.410Z,100520.97
2022-10-02T18:55:51.040Z,100524.59
2022-10-02T18:59:19.070Z,100536.53
2022-10-02T19:02:42.769Z,100532.06
2022-10-02T19:06:08.549Z,100544.16
2022-10-02T19:09:20.944Z,100538.75
2022-10-02T19:12:24.924Z,100546.53
2022-10-02T19:15:32.026Z,100547.63
2022-10-02T19:18:36.760Z,100555.56
2022-10-02T19:21:41.171Z,100553.84
2022-10-02T19:24:53.979Z,100556.38
2022-10-02T19:27:59.785Z,100566.38
2022-10-02T19:31:07.973Z,100570.66
2022-10-02T19:34:17.074Z,100571.34
2022-10-02T19:37:23.346Z,100575.44
2022-10-02T19:40:35.004Z,100577.69
2022-10-02T19:43:59.940Z,100581.66
2022-10-02T19:47:16.729Z,100595.19
2022-10-02T19:50:25.700Z,100600.91
2022-10-02T19:53:34.995Z,100595.38
2022-10-02T19:56:43.688Z,100599.66
2022-10-02T19:59:52.946Z,100599.66
2022-10-02T20:02:59.548Z,100605.53
2022-10-02T20:06:12.167Z,100607.28
2022-10-02T20:09:41.886Z,100611.13
2022-10-02T20:12:55.410Z,100612.84
2022-10-02T20:16:21.294Z,100611.09
2022-10-02T20:19:34.322Z,100623.31
2022-10-02T20:22:49.761Z,100627.28
2022-10-02T20:25:58.331Z,100628.59
2022-10-02T20:29:07.613Z,100634.91
2022-10-02T20:32:20.140Z,100645.56
2022-10-02T20:35:34.667Z,100645.88
2022-10-02T20:38:45.189Z,100645.06
2022-10-02T20:42:05.097Z,100647.94
2022-10-02T20:45:12.065Z,100656.50
2022-10-02T20:49:14.022Z,100660.47
2022-10-02T20:53:02.097Z,100665.38
2022-10-02T20:56:27.488Z,100666.84
2022-10-02T20:59:57.118Z,100675.09
2022-10-02T21:03:19.772Z,100673.81
2022-10-02T21:06:32.655Z,100677.34
2022-10-02T21:09:48.893Z,100688.44
2022-10-02T21:13:35.322Z,100690.81
2022-10-02T21:17:17.533Z,100697.28
2022-10-02T21:20:53.778Z,100700.94
2022-10-02T21:24:07.280Z,100702.19
2022-10-02T21:27:14.275Z,100707.75
2022-10-02T21:30:19.816Z,100703.44
2022-10-02T21:33:54.709Z,100710.28
2022-10-02T21:37:13.005Z,100715.53
2022-10-02T21:40:32.987Z,100708.81
2022-10-02T21:43:40.054Z,100715.47
2022-10-02T21:47:08.134Z,100718.66
2022-10-02T21:50:45.710Z,100724.38
2022-10-02T21:54:14.871Z,100726.13
2022-10-02T21:57:36.984Z,100728.13
2022-10-02T22:01:09.261Z,100723.03
2022-10-02T22:04:46.423Z,100729.03
2022-10-02T22:08:12.357Z,100732.34
2022-10-02T22:11:55.140Z,100749.44
2022-10-02T22:15:07.741Z,100743.31
2022-10-02T22:18:32.051Z,100737.91
2022-10-02T22:22:01.639Z,100741.38
2022-10-02T22:25:33.344Z,100741.38
2022-10-02T22:28:47.271Z,100750.22
2022-10-02T22:32:26.999Z,100751.53
2022-10-02T22:35:46.422Z,100752.88
2022-10-02T22:39:01.417Z,100750.53
2022-10-02T22:42:24.299Z,100750.66
2022-10-02T22:45:44.284Z,100754.16
2022-10-02T22:49:15.950Z,100758.63
2022-10-02T22:52:24.171Z,100761.03
2022-10-02T22:55:33.877Z,100761.31
2022-10-02T22:58:44.740Z,100761.63
2022-10-02T23:01:53.670Z,100762.09
2022-10-02T23:05:16.474Z,100757.16
2022-10-02T23:08:46.618Z,100764.78
2022-10-02T23:12:27.685Z,100760.16
2022-10-02T23:15:52.871Z,100762.19
2022-10-02T23:19:05.802Z,100767.56
2022-10-02T23:22:25.640Z,100772.00
2022-10-02T23:26:00.480Z,100779.78
2022-10-02T23:29:44.889Z,100774.06
2022-10-02T23:32:57.632Z,100774.47
2022-10-02T23:36:07.037Z,100780.19
2022-10-02T23:39:24.224Z,100775.47
2022-10-02T23:42:40.764Z,100786.44
2022-10-02T23:45:50.647Z,100786.97
2022-10-02T23:48:55.129Z,100785.63
2022-10-02T23:52:31.492Z,100789.63
2022-10-02T23:55:51.666Z,100790.69
2022-10-02T23:59:04.685Z,100792.47
